D/T METAR WX W/SPE G/SPE TEMP DEWP FEEL
25/05/22 00:50 EGNS 242350Z 24009KT CAVOK 11/09 Q1006 10.4mph 11°C 9°C 11.8°C
24/05/22 23:50 EGNS 242250Z 23009KT 9999 SCT045 11/10 Q1007 10.4mph 11°C 10°C 12.3°C
24/05/22 22:50 EGNS 242150Z 25008KT 220V280 9999 FEW025 BKN040 11/09 Q1007 9.2mph 11°C 9°C 11.8°C
24/05/22 21:50 EGNS 242050Z 24013KT 210V280 9999 FEW030 12/09 Q1006 15.0mph 12°C 9°C 12.8°C
24/05/22 21:20 EGNS 242020Z 25012KT CAVOK 12/09 Q1006 NOSIG 13.8mph 12°C 9°C 12.8°C
24/05/22 20:50 EGNS 241950Z 23014KT 9999 FEW035 12/09 Q1006 NOSIG 16.1mph 12°C 9°C 12.8°C
24/05/22 20:20 EGNS 241920Z 22009KT 9999 FEW035 12/09 Q1006 NOSIG 10.4mph 12°C 9°C 12.8°C
24/05/22 19:50 EGNS 241850Z 22011KT 9999 FEW020 12/09 Q1006 NOSIG 12.7mph 12°C 9°C 12.8°C
24/05/22 19:20 EGNS 241820Z 22012KT 9999 FEW020 12/08 Q1006 NOSIG 13.8mph 12°C 8°C 12.4°C
24/05/22 18:50 EGNS 241750Z 23011KT 9999 FEW020 SCT045 13/09 Q1006 NOSIG 12.7mph 13°C 9°C 13.8°C
24/05/22 18:20 EGNS 241720Z 21009KT 9999 FEW020 12/10 Q1006 NOSIG 10.4mph 12°C 10°C 13.3°C
24/05/22 17:50 EGNS 241650Z 23010KT 9999 FEW020 14/08 Q1006 NOSIG 11.5mph 14°C 8°C 14.4°C
24/05/22 17:20 EGNS 241620Z 24013KT 9999 FEW020 14/08 Q1006 NOSIG 15.0mph 14°C 8°C 14.4°C
24/05/22 16:50 EGNS 241550Z 23012KT 9999 FEW020 13/09 Q1006 NOSIG 13.8mph 13°C 9°C 13.8°C
24/05/22 16:20 EGNS 241520Z 24013KT 9999 FEW025 14/09 Q1006 NOSIG 15.0mph 14°C 9°C 14.8°C
24/05/22 15:50 EGNS 241450Z 25012KT 220V290 9999 FEW025 15/08 Q1006 NOSIG 13.8mph 15°C 8°C 15.4°C
24/05/22 15:20 EGNS 241420Z 26013KT 9999 FEW025 14/08 Q1006 NOSIG 15.0mph 14°C 8°C 14.4°C
24/05/22 14:50 EGNS 241350Z 27014KT 230V300 9999 FEW025 15/08 Q1006 NOSIG 16.1mph 15°C 8°C 15.4°C
24/05/22 14:20 EGNS 241320Z 26015KT 9999 FEW025 15/08 Q1005 NOSIG 17.3mph 15°C 8°C 15.4°C
24/05/22 13:50 EGNS 241250Z 25014KT 9999 FEW025 15/08 Q1005 NOSIG 16.1mph 15°C 8°C 15.4°C
24/05/22 13:20 EGNS 241220Z 26015KT 9999 FEW015 15/07 Q1005 NOSIG 17.3mph 15°C 7°C 15.0°C
24/05/22 12:50 EGNS 241150Z 27014KT 9999 FEW025 15/07 Q1005 NOSIG 16.1mph 15°C 7°C 15.0°C
24/05/22 12:20 EGNS 241120Z 27015KT 9999 FEW025 14/07 Q1005 NOSIG 17.3mph 14°C 7°C 14.0°C
24/05/22 11:50 EGNS 241050Z 27014KT 9999 FEW022 13/07 Q1004 NOSIG 16.1mph 13°C 7°C 13.0°C
24/05/22 11:20 EGNS 241020Z 26013KT 9999 FEW020 13/07 Q1004 NOSIG 15.0mph 13°C 7°C 13.0°C
24/05/22 10:50 EGNS 240950Z 28015KT 9999 FEW020 13/06 Q1004 NOSIG 17.3mph 13°C 6°C 12.6°C
24/05/22 10:20 EGNS 240920Z 28014KT 9999 FEW018 12/07 Q1004 NOSIG 16.1mph 12°C 7°C 12.0°C
24/05/22 09:50 EGNS 240850Z 29011KT 9999 FEW015 12/07 Q1004 NOSIG 12.7mph 12°C 7°C 12.0°C
24/05/22 09:20 EGNS 240820Z 29010KT 9999 FEW015 11/07 Q1004 NOSIG 11.5mph 11°C 7°C 11.0°C
24/05/22 08:50 EGNS 240750Z 29013KT 9999 FEW015 11/07 Q1004 NOSIG 15.0mph 11°C 7°C 11.0°C
24/05/22 08:20 EGNS 240720Z 30011KT 9999 FEW013 10/07 Q1003 NOSIG 12.7mph 10°C 7°C 10.0°C
24/05/22 07:50 EGNS 240650Z 30010KT 9999 FEW010 10/07 Q1003 NOSIG 11.5mph 10°C 7°C 10.0°C
24/05/22 07:20 EGNS 240620Z 30010KT 9999 FEW010 10/07 Q1003 NOSIG 11.5mph 10°C 7°C 10.0°C
24/05/22 06:50 EGNS 240550Z 29012KT 9999 FEW010 10/08 Q1002 NOSIG 13.8mph 10°C 8°C 10.4°C
24/05/22 06:20 EGNS 240520Z 30011KT 9999 FEW011 10/07 Q1002 NOSIG 12.7mph 10°C 7°C 10.0°C
24/05/22 05:50 EGNS 240450Z 30012KT 9999 FEW009 10/08 Q1002 NOSIG 13.8mph 10°C 8°C 10.4°C
24/05/22 05:20 EGNS 240420Z 30010KT 9999 FEW009 10/07 Q1002 NOSIG 11.5mph 10°C 7°C 10.0°C
24/05/22 04:50 EGNS 240350Z 29007KT 9999 FEW010 10/08 Q1001 8.1mph 10°C 8°C 10.4°C
24/05/22 03:50 EGNS 240250Z 29006KT 9999 FEW010 SCT025 09/08 Q1001 6.9mph 9°C 8°C 9.4°C
24/05/22 02:50 EGNS 240150Z 29005KT 9999 FEW010 BKN030 10/08 Q1001 5.8mph 10°C 8°C 10.4°C
24/05/22 01:50 EGNS 240050Z 29009KT 9999 FEW010 SCT018 BKN030 10/08 Q1001 10.4mph 10°C 8°C 10.4°C
24/05/22 00:50 EGNS 232350Z 28006KT 9999 SCT030 10/08 Q1001 6.9mph 10°C 8°C 10.4°C
23/05/22 23:50 EGNS 232250Z 30007KT 9999 FEW015 10/07 Q1001 8.1mph 10°C 7°C 10.0°C
23/05/22 22:50 EGNS 232150Z 31005KT 270V330 9999 FEW014 10/07 Q1001 5.8mph 10°C 7°C 10.0°C
23/05/22 21:50 EGNS 232050Z 31006KT 9999 FEW014 SCT045 10/08 Q1001 6.9mph 10°C 8°C 10.4°C
23/05/22 20:50 EGNS 231950Z 32005KT 9999 FEW015 11/08 Q1001 NOSIG 5.8mph 11°C 8°C 11.4°C
23/05/22 20:20 EGNS 231920Z 33007KT 270V010 9999 FEW015 BKN045 11/08 Q1001 NOSIG 8.1mph 11°C 8°C 11.4°C
23/05/22 19:50 EGNS 231850Z 30008KT 9999 FEW007 BKN042 12/09 Q1001 NOSIG 9.2mph 12°C 9°C 12.8°C
23/05/22 18:50 EGNS 231750Z 27004KT 230V300 9999 FEW015 SCT045 12/10 Q1001 NOSIG 4.6mph 12°C 10°C 13.3°C
23/05/22 18:20 EGNS 231720Z 29010KT 9999 -RA FEW014 SCT040 12/09 Q1000 NOSIG -RA 11.5mph 12°C 9°C 12.8°C
23/05/22 17:50 EGNS 231650Z 26009KT 230V290 9999 FEW015 SCT040 13/07 Q1001 NOSIG 10.4mph 13°C 7°C 13.0°C
23/05/22 16:50 EGNS 231550Z 32006KT 9999 FEW020 13/08 Q1000 NOSIG 6.9mph 13°C 8°C 13.4°C
23/05/22 16:20 EGNS 231520Z 27009KT 9999 -SHRA FEW018 BKN045 13/08 Q1001 NOSIG -SHRA 10.4mph 13°C 8°C 13.4°C
23/05/22 15:50 EGNS 231450Z 26008KT 9999 FEW014 13/08 Q1001 NOSIG 9.2mph 13°C 8°C 13.4°C
23/05/22 15:20 EGNS 231420Z 23011KT 9999 FEW014 SCT018 14/09 Q1001 NOSIG 12.7mph 14°C 9°C 14.8°C
23/05/22 14:50 EGNS 231350Z 23011KT 9999 FEW018 13/08 Q1001 NOSIG 12.7mph 13°C 8°C 13.4°C
23/05/22 14:20 EGNS 231320Z 26008KT 220V310 9999 FEW018 14/09 Q1001 NOSIG 9.2mph 14°C 9°C 14.8°C
23/05/22 13:50 EGNS 231250Z 28008KT 250V330 9999 FEW018 14/09 Q1001 NOSIG 9.2mph 14°C 9°C 14.8°C
23/05/22 13:20 EGNS 231220Z 27009KT 9999 FEW018 13/09 Q1001 NOSIG 10.4mph 13°C 9°C 13.8°C
23/05/22 12:50 EGNS 231150Z 29011KT 9999 SCT018 14/08 Q1001 NOSIG 12.7mph 14°C 8°C 14.4°C
23/05/22 12:20 EGNS 231120Z 29011KT 9999 FEW010 SCT045 13/09 Q1001 NOSIG 12.7mph 13°C 9°C 13.8°C
23/05/22 11:50 EGNS 231050Z 30010KT 9999 FEW010 SCT015 13/09 Q1001 NOSIG 11.5mph 13°C 9°C 13.8°C
23/05/22 11:20 EGNS 231020Z 29011KT 9999 SCT014 BKN040 12/09 Q1002 NOSIG 12.7mph 12°C 9°C 12.8°C
23/05/22 10:50 EGNS 230950Z 29010KT 270V330 9999 FEW010 SCT045 12/09 Q1001 NOSIG 11.5mph 12°C 9°C 12.8°C
23/05/22 10:20 EGNS 230920Z 29011KT 260V330 9999 FEW009 SCT014 BKN040 12/09 Q1002 NOSIG 12.7mph 12°C 9°C 12.8°C
23/05/22 09:50 EGNS 230850Z 29010KT 9999 FEW009 SCT015 BKN040 12/09 Q1002 NOSIG 11.5mph 12°C 9°C 12.8°C
23/05/22 09:20 EGNS 230820Z 29011KT 9999 FEW009 BKN040 12/09 Q1002 NOSIG 12.7mph 12°C 9°C 12.8°C
23/05/22 08:50 EGNS 230750Z 29010KT 9999 FEW009 SCT018 12/10 Q1002 NOSIG 11.5mph 12°C 10°C 13.3°C
23/05/22 08:20 EGNS 230720Z 29010KT 9999 FEW009 12/09 Q1002 NOSIG 11.5mph 12°C 9°C 12.8°C
23/05/22 07:50 EGNS 230650Z 29010KT 9999 FEW010 SCT035 12/09 Q1002 NOSIG 11.5mph 12°C 9°C 12.8°C
23/05/22 07:20 EGNS 230620Z 28009KT 9999 FEW008 SCT032 11/10 Q1002 NOSIG 10.4mph 11°C 10°C 12.3°C
23/05/22 06:50 EGNS 230550Z 27008KT 9999 SCT008 SCT032 11/10 Q1002 NOSIG 9.2mph 11°C 10°C 12.3°C
23/05/22 06:20 EGNS 230520Z 26009KT 9999 SCT010 BKN031 11/10 Q1002 NOSIG 10.4mph 11°C 10°C 12.3°C
23/05/22 05:50 EGNS 230450Z 26010KT 9999 FEW009 SCT032 11/10 Q1002 NOSIG 11.5mph 11°C 10°C 12.3°C
23/05/22 05:20 EGNS 230420Z 26010KT 9999 FEW010 BKN030 11/10 Q1002 NOSIG 11.5mph 11°C 10°C 12.3°C
23/05/22 04:50 EGNS 230350Z 25012KT 9999 FEW011 SCT027 11/09 Q1002 NOSIG 13.8mph 11°C 9°C 11.8°C
23/05/22 03:50 EGNS 230250Z 24005KT 9999 FEW008 10/09 Q1002 5.8mph 10°C 9°C 10.8°C
23/05/22 02:50 EGNS 230150Z 26009KT 9999 FEW008 11/09 Q1003 10.4mph 11°C 9°C 11.8°C
23/05/22 01:50 EGNS 230050Z 25006KT 9999 FEW006 11/10 Q1003 6.9mph 11°C 10°C 12.3°C
23/05/22 00:50 EGNS 222350Z 24008KT 9999 FEW005 11/11 Q1004 9.2mph 11°C 11°C 12.8°C
22/05/22 22:50 EGNS 222150Z 21014KT 9999 FEW005 11/11 Q1004 16.1mph 11°C 11°C 12.8°C
22/05/22 21:50 EGNS 222050Z 20010KT 9000 FEW005 SCT040 11/11 Q1005 11.5mph 11°C 11°C 12.8°C
22/05/22 20:50 EGNS 221950Z 22009KT 5000 RA FEW004 SCT008 BKN035 12/11 Q1005 BECMG 9999 NSW RA 10.4mph 12°C 11°C 13.8°C
22/05/22 20:20 EGNS 221920Z 21008KT 7000 -RA FEW005 SCT010 BKN045 12/11 Q1005 TEMPO 9999 NSW -RA 9.2mph 12°C 11°C 13.8°C
22/05/22 19:50 EGNS 221850Z 22007KT 9999 FEW005 SCT018 BKN045 12/11 Q1005 NOSIG 8.1mph 12°C 11°C 13.8°C
22/05/22 19:20 EGNS 221820Z 22010KT 9999 FEW005 SCT025 BKN035 12/11 Q1005 NOSIG 11.5mph 12°C 11°C 13.8°C
22/05/22 18:50 EGNS 221750Z 23011KT 9999 -RA FEW010 BKN038 12/11 Q1005 NOSIG -RA 12.7mph 12°C 11°C 13.8°C
22/05/22 18:20 EGNS 221720Z 21014KT 9999 FEW012 SCT040 13/10 Q1005 NOSIG 16.1mph 13°C 10°C 14.3°C
22/05/22 17:50 EGNS 221650Z 21017KT 9999 -RA FEW012 13/10 Q1005 NOSIG -RA 19.6mph 13°C 10°C 14.3°C
22/05/22 17:20 EGNS 221620Z 21015KT 9999 FEW012 SCT040 13/11 Q1006 NOSIG 17.3mph 13°C 11°C 14.8°C
22/05/22 16:50 EGNS 221550Z 21016KT 9999 FEW010 13/11 Q1006 NOSIG 18.4mph 13°C 11°C 14.8°C
22/05/22 16:20 EGNS 221520Z 21017KT 9999 FEW005 SCT040 14/12 Q1006 NOSIG 19.6mph 14°C 12°C 16.3°C
22/05/22 15:50 EGNS 221450Z 20017KT 9999 FEW002 BKN003 13/12 Q1006 NOSIG 19.6mph 13°C 12°C 15.3°C
22/05/22 15:20 EGNS 221420Z 21018KT 3500 BR BKN001 OVC002 13/12 Q1007 NOSIG BR 20.7mph 13°C 12°C 15.3°C
22/05/22 14:50 EGNS 221350Z 21017KT 4000 BR SCT001 OVC002 13/12 Q1007 NOSIG BR 19.6mph 13°C 12°C 15.3°C
22/05/22 14:20 EGNS 221320Z 21016KT 2500 BR BKN001 OVC002 12/12 Q1007 NOSIG BR 18.4mph 12°C 12°C 14.3°C